This is the latest recevied weather packets stored in our database for station/object SALIDA. If no packets are shown the sender has not sent any weather packets the latest 10 day(s).
| Time | Temp. | Humidity | Pressure | Rain* | Wind** | Luminosity | Snow |
|---|---|---|---|---|---|---|---|
| 1777901488 | 10.56° C | 51% | 1004.3 hPa | 0 mm | - | - | - |
| 1777900588 | 10° C | 54% | 1004.2 hPa | 0 mm | - | - | - |
| 1777899688 | 10° C | 53% | 1003.7 hPa | 0 mm | - | - | - |
| 1777898788 | 10° C | 52% | 1003.6 hPa | 0 mm | - | - | - |
| 1777897888 | 10° C | 51% | 1003.7 hPa | 0 mm | - | - | - |
| 1777896988 | 10° C | 52% | 1003.9 hPa | 0 mm | - | - | - |
| 1777896088 | 8.89° C | 54% | 1004.2 hPa | 0 mm | - | - | - |
| 1777895188 | 7.22° C | 55% | 1004.1 hPa | 0 mm | - | - | - |
| 1777894288 | 7.78° C | 52% | 1004 hPa | 0 mm | - | - | - |
| 1777893388 | 7.78° C | 51% | 1004.4 hPa | 0 mm | - | - | - |
| 1777892488 | 8.33° C | 49% | 1004.3 hPa | 0 mm | - | - | - |
| 1777891588 | 7.22° C | 53% | 1004.3 hPa | 0 mm | - | - | - |
| 1777890688 | 6.67° C | 51% | 1004.4 hPa | 0 mm | - | - | - |
| 1777889788 | 7.78° C | 50% | 1004.4 hPa | 0 mm | - | - | - |
| 1777888888 | 5° C | 58% | 1004.5 hPa | 0 mm | - | - | - |
| 1777887988 | 5° C | 59% | 1004.9 hPa | 0 mm | - | - | - |
| 1777887088 | 5° C | 59% | 1005 hPa | 0 mm | - | - | - |
| 1777886188 | 4.44° C | 59% | 1005.1 hPa | 0 mm | - | - | - |
| 1777885288 | 4.44° C | 57% | 1005.2 hPa | 0 mm | - | - | - |
| 1777884388 | 4.44° C | 55% | 1005 hPa | 0 mm | - | - | - |
| 1777883488 | 4.44° C | 55% | 1004.9 hPa | 0 mm | - | - | - |
| 1777882588 | 4.44° C | 56% | 1005.2 hPa | 0 mm | - | - | - |
| 1777881688 | 4.44° C | 55% | 1005.4 hPa | 0 mm | - | - | - |
| 1777880788 | 5° C | 54% | 1005.4 hPa | 0 mm | - | - | - |
| 1777879888 | 5° C | 51% | 1005.8 hPa | 0 mm | - | - | - |
* Rain latest hour (hover to see other rain measurements)
** Current wind speed in m/s (hover to see current wind gust speed)